createdAt,value
2018-05-05T00:00:06.803Z,1043.74
2018-05-05T00:01:06.794Z,1043.76
2018-05-05T00:02:06.786Z,1043.79
2018-05-05T00:03:06.776Z,1043.82
2018-05-05T00:04:06.769Z,1043.82
2018-05-05T00:05:06.757Z,1043.81
2018-05-05T00:06:06.753Z,1043.82
2018-05-05T00:07:06.738Z,1043.8
2018-05-05T00:08:06.730Z,1043.87
2018-05-05T00:09:06.720Z,1043.86
2018-05-05T00:10:06.711Z,1043.9
2018-05-05T00:11:06.701Z,1043.87
2018-05-05T00:12:06.692Z,1043.93
2018-05-05T00:13:06.684Z,1043.9
2018-05-05T00:14:06.673Z,1043.95
2018-05-05T00:15:06.668Z,1043.97
2018-05-05T00:16:06.659Z,1044.01
2018-05-05T00:17:06.647Z,1044.04
2018-05-05T00:18:06.636Z,1044.02
2018-05-05T00:19:06.627Z,1044.02
2018-05-05T00:20:06.618Z,1043.99
2018-05-05T00:21:06.609Z,1044.01
2018-05-05T00:22:06.599Z,1043.99
2018-05-05T00:23:06.590Z,1043.96
2018-05-05T00:24:06.581Z,1044
2018-05-05T00:25:06.571Z,1043.94
2018-05-05T00:26:06.561Z,1043.93
2018-05-05T00:27:06.557Z,1043.9
2018-05-05T00:28:06.546Z,1043.86
2018-05-05T00:29:06.539Z,1043.83
2018-05-05T00:30:06.524Z,1043.93
2018-05-05T00:31:06.516Z,1043.86
2018-05-05T00:32:06.506Z,1043.92
2018-05-05T00:33:06.496Z,1043.96
2018-05-05T00:34:06.486Z,1043.9
2018-05-05T00:35:06.477Z,1043.89
2018-05-05T00:36:06.468Z,1043.86
2018-05-05T00:37:06.459Z,1043.88
2018-05-05T00:38:06.453Z,1043.9
2018-05-05T00:39:06.440Z,1043.91
2018-05-05T00:40:06.431Z,1043.93
2018-05-05T00:41:06.421Z,1043.88
2018-05-05T00:42:06.412Z,1043.92
2018-05-05T00:43:06.403Z,1043.96
2018-05-05T00:44:06.394Z,1043.89
2018-05-05T00:45:06.384Z,1043.97
2018-05-05T00:46:06.379Z,1043.95
2018-05-05T00:47:06.365Z,1043.92
2018-05-05T00:48:06.355Z,1043.93
2018-05-05T00:49:06.347Z,1043.94
2018-05-05T00:50:06.337Z,1043.91
2018-05-05T00:51:06.327Z,1043.88
2018-05-05T00:52:06.395Z,1043.89
2018-05-05T00:53:06.308Z,1043.85
2018-05-05T00:54:06.299Z,1043.84
2018-05-05T00:55:06.289Z,1043.84
2018-05-05T00:56:06.279Z,1043.8
2018-05-05T00:57:06.271Z,1043.84
2018-05-05T00:58:06.261Z,1043.81
2018-05-05T00:59:06.251Z,1043.81
2018-05-05T01:00:06.241Z,1043.83
2018-05-05T01:01:06.232Z,1043.84
2018-05-05T01:02:06.222Z,1043.82
2018-05-05T01:03:06.213Z,1043.83
2018-05-05T01:04:06.204Z,1043.85
2018-05-05T01:05:06.193Z,1043.85
2018-05-05T01:06:06.186Z,1043.86
2018-05-05T01:07:06.178Z,1043.83
2018-05-05T01:08:06.166Z,1043.82
2018-05-05T01:09:06.157Z,1043.85
2018-05-05T01:10:06.145Z,1043.87
2018-05-05T01:11:06.137Z,1043.85
2018-05-05T01:12:06.126Z,1043.93
2018-05-05T01:13:06.116Z,1043.87
2018-05-05T01:14:06.108Z,1043.92
2018-05-05T01:15:06.098Z,1043.92
2018-05-05T01:16:06.088Z,1043.91
2018-05-05T01:17:06.078Z,1043.9
2018-05-05T01:18:06.069Z,1043.96
2018-05-05T01:19:06.066Z,1043.94
2018-05-05T01:20:06.053Z,1044.02
2018-05-05T01:21:06.044Z,1044.01
2018-05-05T01:22:06.030Z,1044.05
2018-05-05T01:23:06.020Z,1044.05
2018-05-05T01:24:06.021Z,1044.06
2018-05-05T01:25:06.003Z,1044.03
2018-05-05T01:26:05.991Z,1044.09
2018-05-05T01:27:05.982Z,1044.05
2018-05-05T01:28:05.971Z,1044.07
2018-05-05T01:29:05.961Z,1044.09
2018-05-05T01:30:05.952Z,1044.06
2018-05-05T01:31:05.942Z,1044.04
2018-05-05T01:32:05.932Z,1044.05
2018-05-05T01:33:05.921Z,1044.08
2018-05-05T01:34:05.917Z,1044.08
2018-05-05T01:35:05.902Z,1044.07
2018-05-05T01:36:05.892Z,1044.06
2018-05-05T01:37:05.887Z,1044.1
2018-05-05T01:38:05.871Z,1044.05
2018-05-05T01:39:05.862Z,1044.07
2018-05-05T01:40:05.853Z,1044.09
2018-05-05T01:41:05.844Z,1044.1
2018-05-05T01:42:05.832Z,1044.08
2018-05-05T01:43:05.823Z,1044.08
2018-05-05T01:44:05.813Z,1044.09
2018-05-05T01:45:05.803Z,1044.07
2018-05-05T01:46:05.792Z,1044.05
2018-05-05T01:47:05.783Z,1044.04
2018-05-05T01:48:05.787Z,1044.06
2018-05-05T01:49:05.761Z,1044.05
2018-05-05T01:50:05.752Z,1044.06
2018-05-05T01:51:05.742Z,1044.1
2018-05-05T01:52:05.732Z,1044.11
2018-05-05T01:53:05.722Z,1044.17
2018-05-05T01:54:05.712Z,1044.09
2018-05-05T01:55:05.705Z,1044.1
2018-05-05T01:56:05.692Z,1044.13
2018-05-05T01:57:05.681Z,1044.1
2018-05-05T01:58:05.672Z,1044.11
2018-05-05T01:59:05.661Z,1044.15
2018-05-05T02:00:05.654Z,1044.16
2018-05-05T02:01:05.643Z,1044.13
2018-05-05T02:02:05.630Z,1044.18
2018-05-05T02:03:05.620Z,1044.18
2018-05-05T02:04:05.609Z,1044.15
2018-05-05T02:05:05.600Z,1044.17
2018-05-05T02:06:05.590Z,1044.2
2018-05-05T02:07:05.579Z,1044.21
2018-05-05T02:08:05.573Z,1044.24
2018-05-05T02:09:05.558Z,1044.26
2018-05-05T02:10:05.548Z,1044.22
2018-05-05T02:11:05.540Z,1044.24
2018-05-05T02:12:05.527Z,1044.24
2018-05-05T02:13:05.517Z,1044.25
2018-05-05T02:14:05.507Z,1044.28
2018-05-05T02:15:05.496Z,1044.24
2018-05-05T02:16:05.486Z,1044.24
2018-05-05T02:17:05.476Z,1044.23
2018-05-05T02:18:05.466Z,1044.2
2018-05-05T02:19:05.456Z,1044.21
2018-05-05T02:20:05.447Z,1044.24
2018-05-05T02:21:05.437Z,1044.27
2018-05-05T02:22:05.425Z,1044.25
2018-05-05T02:23:05.415Z,1044.24
2018-05-05T02:24:05.407Z,1044.26
2018-05-05T02:25:05.394Z,1044.28
2018-05-05T02:26:05.384Z,1044.3
2018-05-05T02:27:05.373Z,1044.28
2018-05-05T02:28:05.365Z,1044.25
2018-05-05T02:29:05.351Z,1044.28
2018-05-05T02:30:05.342Z,1044.31
2018-05-05T02:31:05.333Z,1044.25
2018-05-05T02:32:05.322Z,1044.28
2018-05-05T02:33:05.311Z,1044.27
2018-05-05T02:34:05.301Z,1044.29
2018-05-05T02:35:05.290Z,1044.31
2018-05-05T02:36:05.281Z,1044.32
2018-05-05T02:37:05.269Z,1044.31
2018-05-05T02:38:05.259Z,1044.33
2018-05-05T02:39:05.249Z,1044.36
2018-05-05T02:40:05.237Z,1044.39
2018-05-05T02:41:05.228Z,1044.38
2018-05-05T02:42:05.218Z,1044.36
2018-05-05T02:43:05.206Z,1044.36
2018-05-05T02:44:05.199Z,1044.39
2018-05-05T02:45:05.186Z,1044.39
2018-05-05T02:46:05.174Z,1044.42
2018-05-05T02:47:05.169Z,1044.42
2018-05-05T02:48:05.157Z,1044.42
2018-05-05T02:49:05.149Z,1044.44
2018-05-05T02:50:05.133Z,1044.48
2018-05-05T02:51:05.128Z,1044.45
2018-05-05T02:52:05.115Z,1044.46
2018-05-05T02:53:05.136Z,1044.43
2018-05-05T02:54:05.092Z,1044.44
2018-05-05T02:55:05.079Z,1044.42
2018-05-05T02:56:05.070Z,1044.47
2018-05-05T02:57:05.059Z,1044.46
2018-05-05T02:58:05.048Z,1044.46
2018-05-05T02:59:05.037Z,1044.46
2018-05-05T03:00:05.027Z,1044.46
2018-05-05T03:01:05.016Z,1044.43
2018-05-05T03:02:05.006Z,1044.4
2018-05-05T03:03:04.996Z,1044.42
2018-05-05T03:04:04.990Z,1044.39
2018-05-05T03:05:04.975Z,1044.37
2018-05-05T03:06:04.963Z,1044.38
2018-05-05T03:07:04.953Z,1044.37
2018-05-05T03:08:04.942Z,1044.34
2018-05-05T03:09:04.932Z,1044.34
2018-05-05T03:10:04.922Z,1044.37
2018-05-05T03:11:04.912Z,1044.36
2018-05-05T03:12:04.904Z,1044.41
2018-05-05T03:13:04.891Z,1044.4
2018-05-05T03:14:04.878Z,1044.41
2018-05-05T03:15:04.870Z,1044.36
2018-05-05T03:16:04.857Z,1044.38
2018-05-05T03:17:04.845Z,1044.38
2018-05-05T03:18:04.836Z,1044.38
2018-05-05T03:19:04.824Z,1044.41
2018-05-05T03:20:04.814Z,1044.41
2018-05-05T03:21:04.806Z,1044.38
2018-05-05T03:22:04.794Z,1044.38
2018-05-05T03:23:04.782Z,1044.42
2018-05-05T03:24:04.770Z,1044.38
2018-05-05T03:25:04.760Z,1044.36
2018-05-05T03:26:04.749Z,1044.37
2018-05-05T03:27:04.739Z,1044.36
2018-05-05T03:28:04.727Z,1044.35
2018-05-05T03:29:04.716Z,1044.35
2018-05-05T03:30:04.707Z,1044.35
2018-05-05T03:31:04.697Z,1044.31
2018-05-05T03:32:04.686Z,1044.32
2018-05-05T03:33:04.675Z,1044.33
2018-05-05T03:34:04.663Z,1044.32
2018-05-05T03:35:04.652Z,1044.33
2018-05-05T03:36:04.642Z,1044.29
2018-05-05T03:37:04.632Z,1044.32
2018-05-05T03:38:04.621Z,1044.33
2018-05-05T03:39:04.610Z,1044.29
2018-05-05T03:40:04.599Z,1044.33
2018-05-05T03:41:04.589Z,1044.35
2018-05-05T03:42:04.579Z,1044.32
2018-05-05T03:43:04.568Z,1044.37
2018-05-05T03:44:04.557Z,1044.4
2018-05-05T03:45:04.546Z,1044.42
2018-05-05T03:46:04.536Z,1044.43
2018-05-05T03:47:04.524Z,1044.43
2018-05-05T03:48:04.514Z,1044.44
2018-05-05T03:49:04.504Z,1044.39
2018-05-05T03:50:04.493Z,1044.41
2018-05-05T03:51:04.482Z,1044.41
2018-05-05T03:52:04.476Z,1044.43
2018-05-05T03:53:04.461Z,1044.39
2018-05-05T03:54:04.451Z,1044.4
2018-05-05T03:55:04.511Z,1044.39
2018-05-05T03:56:04.432Z,1044.39
2018-05-05T03:57:04.420Z,1044.36
2018-05-05T03:58:04.417Z,1044.38
2018-05-05T03:59:04.399Z,1044.34
2018-05-05T04:00:04.389Z,1044.26
2018-05-05T04:01:04.377Z,1044.17
2018-05-05T04:02:04.368Z,1043.98
2018-05-05T04:03:04.358Z,1043.8
2018-05-05T04:04:04.347Z,1043.56
2018-05-05T04:05:04.337Z,1043.39
2018-05-05T04:06:04.327Z,1043.19
2018-05-05T04:07:04.318Z,1043.04
2018-05-05T04:08:04.305Z,1042.85
2018-05-05T04:09:04.296Z,1042.69
2018-05-05T04:10:04.287Z,1042.59
2018-05-05T04:11:04.278Z,1042.46
2018-05-05T04:12:04.268Z,1042.31
2018-05-05T04:13:04.259Z,1042.19
2018-05-05T04:14:04.249Z,1042.05
2018-05-05T04:15:04.239Z,1041.99
2018-05-05T04:16:04.234Z,1041.88
2018-05-05T04:17:04.223Z,1041.76
2018-05-05T04:18:04.214Z,1041.61
2018-05-05T04:19:04.205Z,1041.49
2018-05-05T04:20:04.197Z,1041.36
2018-05-05T04:21:04.188Z,1041.32
2018-05-05T04:22:04.181Z,1041.26
2018-05-05T04:23:04.172Z,1041.2
2018-05-05T04:24:04.165Z,1041.12
2018-05-05T04:25:04.159Z,1041.08
2018-05-05T04:26:04.149Z,1041.02
2018-05-05T04:27:04.142Z,1040.89
2018-05-05T04:28:04.136Z,1040.82
2018-05-05T04:29:04.129Z,1040.75
2018-05-05T04:30:04.121Z,1040.72
2018-05-05T04:31:04.119Z,1040.56
2018-05-05T04:32:04.108Z,1040.41
2018-05-05T04:33:04.103Z,1040.35
2018-05-05T04:34:04.097Z,1040.24
2018-05-05T04:35:04.091Z,1040.2
2018-05-05T04:36:04.089Z,1040.14
2018-05-05T04:37:04.079Z,1040.03
2018-05-05T04:38:04.073Z,1040.01
2018-05-05T04:39:04.073Z,1040.03
2018-05-05T04:40:04.063Z,1040.03
2018-05-05T04:41:04.057Z,1039.94
2018-05-05T04:42:04.053Z,1039.93
2018-05-05T04:43:04.051Z,1039.96
2018-05-05T04:44:04.044Z,1039.92
2018-05-05T04:45:04.043Z,1039.89
2018-05-05T04:46:04.038Z,1039.81
2018-05-05T04:47:04.031Z,1039.82
2018-05-05T04:48:04.028Z,1039.73
2018-05-05T04:49:04.023Z,1039.68
2018-05-05T04:50:04.018Z,1039.56
2018-05-05T04:51:04.015Z,1039.43
2018-05-05T04:52:04.020Z,1039.34
2018-05-05T04:53:04.006Z,1039.25
2018-05-05T04:54:04.003Z,1039.2
2018-05-05T04:55:04.000Z,1039.15
2018-05-05T04:56:03.996Z,1039.13
2018-05-05T04:57:04.032Z,1039.15
2018-05-05T04:58:03.990Z,1039.13
2018-05-05T04:59:03.987Z,1039.12
2018-05-05T05:00:03.986Z,1039.03
2018-05-05T05:01:03.981Z,1038.93
2018-05-05T05:02:03.979Z,1038.91
2018-05-05T05:03:03.977Z,1038.74
2018-05-05T05:04:03.976Z,1038.64
2018-05-05T05:05:04.011Z,1038.66
2018-05-05T05:06:03.969Z,1038.64
2018-05-05T05:07:03.966Z,1038.67
2018-05-05T05:08:03.965Z,1038.67
2018-05-05T05:09:03.963Z,1038.77
2018-05-05T05:10:03.961Z,1038.77
2018-05-05T05:11:04.038Z,1038.62
2018-05-05T05:12:03.957Z,1038.61
2018-05-05T05:13:03.959Z,1038.42
2018-05-05T05:14:03.954Z,1038.4
2018-05-05T05:15:03.960Z,1038.34
2018-05-05T05:16:03.951Z,1038.28
2018-05-05T05:17:03.951Z,1038.13
2018-05-05T05:18:03.949Z,1038.11
2018-05-05T05:19:03.948Z,1038.08
2018-05-05T05:20:03.950Z,1038.07
2018-05-05T05:21:03.945Z,1038.03
2018-05-05T05:22:03.945Z,1038.04
2018-05-05T05:23:03.944Z,1037.99
2018-05-05T05:24:03.944Z,1037.9
2018-05-05T05:25:03.943Z,1037.8
2018-05-05T05:26:03.944Z,1037.72
2018-05-05T05:27:03.943Z,1037.61
2018-05-05T05:28:03.944Z,1037.56
2018-05-05T05:29:03.944Z,1037.52
2018-05-05T05:30:03.944Z,1037.49
2018-05-05T05:31:03.945Z,1037.54
2018-05-05T05:32:03.945Z,1037.46
2018-05-05T05:33:03.946Z,1037.45
2018-05-05T05:34:04.025Z,1037.37
2018-05-05T05:35:03.954Z,1037.34
2018-05-05T05:36:03.949Z,1037.33
2018-05-05T05:37:03.954Z,1037.26
2018-05-05T05:38:03.953Z,1037.16
2018-05-05T05:39:03.955Z,1037.03
2018-05-05T05:40:03.957Z,1036.96
2018-05-05T05:41:03.959Z,1036.84
2018-05-05T05:42:03.961Z,1036.69
2018-05-05T05:43:03.963Z,1036.67
2018-05-05T05:44:03.970Z,1036.66
2018-05-05T05:45:03.969Z,1036.71
2018-05-05T05:46:03.971Z,1036.73
2018-05-05T05:47:03.973Z,1036.69
2018-05-05T05:48:03.977Z,1036.63
2018-05-05T05:49:03.981Z,1036.62
2018-05-05T05:50:03.988Z,1036.61
2018-05-05T05:51:03.990Z,1036.55
2018-05-05T05:52:03.992Z,1036.54
2018-05-05T05:53:03.997Z,1036.53
2018-05-05T05:54:04.000Z,1036.44
2018-05-05T05:55:04.005Z,1036.47
2018-05-05T05:56:04.011Z,1036.39
2018-05-05T05:57:04.013Z,1036.41
2018-05-05T05:58:04.017Z,1036.46
2018-05-05T05:59:04.022Z,1036.46
2018-05-05T06:00:04.027Z,1036.37
2018-05-05T06:01:04.031Z,1036.24
2018-05-05T06:02:04.035Z,1036.17
2018-05-05T06:03:04.041Z,1036.19
2018-05-05T06:04:04.046Z,1036.15
2018-05-05T06:05:04.051Z,1036.1
2018-05-05T06:06:04.060Z,1036.05
2018-05-05T06:07:04.065Z,1036.08
2018-05-05T06:08:04.067Z,1036.08
2018-05-05T06:09:04.071Z,1036.02
2018-05-05T06:10:04.085Z,1035.96
2018-05-05T06:11:04.087Z,1035.95
2018-05-05T06:12:04.089Z,1035.91
2018-05-05T06:13:04.094Z,1035.87
2018-05-05T06:14:04.100Z,1035.82
2018-05-05T06:15:04.109Z,1035.75
2018-05-05T06:16:04.113Z,1035.65
2018-05-05T06:17:04.119Z,1035.53
2018-05-05T06:18:04.187Z,1035.6
2018-05-05T06:19:04.133Z,1035.63
2018-05-05T06:20:04.139Z,1035.5
2018-05-05T06:21:04.145Z,1035.48
2018-05-05T06:22:04.153Z,1035.38
2018-05-05T06:23:04.159Z,1035.35
2018-05-05T06:24:04.168Z,1035.22
2018-05-05T06:25:04.175Z,1035.18
2018-05-05T06:26:04.182Z,1035.12
2018-05-05T06:27:04.189Z,1035.14
2018-05-05T06:28:04.200Z,1035.16
2018-05-05T06:29:04.205Z,1035.13
2018-05-05T06:30:04.217Z,1035.01
2018-05-05T06:31:04.223Z,1035.03
2018-05-05T06:32:04.233Z,1035.08
2018-05-05T06:33:04.239Z,1035.01
2018-05-05T06:34:04.251Z,1035.14
2018-05-05T06:35:04.256Z,1035.22
2018-05-05T06:36:04.266Z,1035.07
2018-05-05T06:37:04.272Z,1034.98
2018-05-05T06:38:04.280Z,1035.02
2018-05-05T06:39:04.303Z,1035.02
2018-05-05T06:40:04.342Z,1034.89
2018-05-05T06:41:04.307Z,1034.71
2018-05-05T06:42:04.316Z,1034.48
2018-05-05T06:43:04.323Z,1034.29
2018-05-05T06:44:04.334Z,1034.12
2018-05-05T06:45:04.342Z,1034.07
2018-05-05T06:46:04.351Z,1034.13
2018-05-05T06:47:04.360Z,1034.25
2018-05-05T06:48:04.376Z,1034.16
2018-05-05T06:49:04.378Z,1034.09
2018-05-05T06:50:04.388Z,1034.05
2018-05-05T06:51:04.402Z,1034.06
2018-05-05T06:52:04.406Z,1034.04
2018-05-05T06:53:04.417Z,1034
2018-05-05T06:54:04.426Z,1034.01
2018-05-05T06:55:04.435Z,1033.96
2018-05-05T06:56:04.446Z,1033.81
2018-05-05T06:57:04.541Z,1033.7
2018-05-05T06:58:04.464Z,1033.67
2018-05-05T06:59:04.550Z,1033.5
2018-05-05T07:00:04.486Z,1033.43
2018-05-05T07:01:04.503Z,1033.35
2018-05-05T07:02:04.503Z,1033.29
2018-05-05T07:03:04.513Z,1033.21
2018-05-05T07:04:04.524Z,1033.32
2018-05-05T07:05:04.534Z,1033.4
2018-05-05T07:06:04.544Z,1033.44
2018-05-05T07:07:04.553Z,1033.47
2018-05-05T07:08:04.585Z,1033.41
2018-05-05T07:09:04.608Z,1033.47
2018-05-05T07:10:04.585Z,1033.52
2018-05-05T07:11:04.597Z,1033.58
2018-05-05T07:12:04.607Z,1033.58
2018-05-05T07:13:04.654Z,1033.54
2018-05-05T07:14:04.625Z,1033.5
2018-05-05T07:15:04.637Z,1033.38
2018-05-05T07:16:04.660Z,1033.44
2018-05-05T07:17:04.658Z,1033.36
2018-05-05T07:18:04.668Z,1033.28
2018-05-05T07:19:04.678Z,1033.26
2018-05-05T07:20:04.689Z,1033.21
2018-05-05T07:21:04.700Z,1033.28
2018-05-05T07:22:04.710Z,1033.33
2018-05-05T07:23:04.723Z,1033.52
2018-05-05T07:24:04.731Z,1033.7
2018-05-05T07:25:04.741Z,1033.91
2018-05-05T07:26:04.754Z,1034.03
2018-05-05T07:27:04.763Z,1034.16
2018-05-05T07:28:04.773Z,1034.28
2018-05-05T07:29:04.785Z,1034.26
2018-05-05T07:30:04.794Z,1034.17
2018-05-05T07:31:04.804Z,1034.1
2018-05-05T07:32:04.817Z,1033.95
2018-05-05T07:33:04.824Z,1033.95
2018-05-05T07:34:04.836Z,1034.02
2018-05-05T07:35:04.845Z,1034.03
2018-05-05T07:36:04.854Z,1034.06
2018-05-05T07:37:04.865Z,1034.16
2018-05-05T07:38:04.934Z,1034.27
2018-05-05T07:39:04.886Z,1034.28
2018-05-05T07:40:04.895Z,1034.28
2018-05-05T07:41:04.909Z,1034.39
2018-05-05T07:42:04.916Z,1034.45
2018-05-05T07:43:04.927Z,1034.49
2018-05-05T07:44:04.936Z,1034.45
2018-05-05T07:45:04.951Z,1034.4
2018-05-05T07:46:04.961Z,1034.19
2018-05-05T07:47:04.967Z,1034.05
2018-05-05T07:48:04.977Z,1033.83
2018-05-05T07:49:04.990Z,1033.57
2018-05-05T07:50:05.008Z,1033.51
2018-05-05T07:51:05.010Z,1033.56
2018-05-05T07:52:05.020Z,1033.58
2018-05-05T07:53:05.034Z,1033.56
2018-05-05T07:54:05.047Z,1033.46
2018-05-05T07:55:05.053Z,1033.46
2018-05-05T07:56:05.064Z,1033.28
2018-05-05T07:57:05.075Z,1033.13
2018-05-05T07:58:05.088Z,1032.87
2018-05-05T07:59:05.105Z,1032.51
2018-05-05T08:00:05.109Z,1032.3
2018-05-05T08:01:05.120Z,1032
2018-05-05T08:02:05.130Z,1031.97
2018-05-05T08:03:05.143Z,1031.93
2018-05-05T08:04:05.154Z,1032.07
2018-05-05T08:05:05.574Z,1032.09
2018-05-05T08:06:05.177Z,1032.3
2018-05-05T08:07:05.189Z,1032.53
2018-05-05T08:08:05.200Z,1032.84
2018-05-05T08:09:05.217Z,1033.12
2018-05-05T08:10:05.223Z,1033.34
2018-05-05T08:11:05.234Z,1033.46
2018-05-05T08:12:05.246Z,1033.59
2018-05-05T08:13:05.257Z,1033.73
2018-05-05T08:14:05.271Z,1033.76
2018-05-05T08:15:05.282Z,1033.72
2018-05-05T08:16:05.291Z,1033.71
2018-05-05T08:17:05.300Z,1033.76
2018-05-05T08:18:05.312Z,1033.83
2018-05-05T08:19:05.323Z,1033.88
2018-05-05T08:20:05.333Z,1033.86
2018-05-05T08:21:05.343Z,1033.88
2018-05-05T08:22:05.354Z,1034.03
2018-05-05T08:23:05.367Z,1034.08
2018-05-05T08:24:05.378Z,1034.11
2018-05-05T08:25:05.386Z,1034.18
2018-05-05T08:26:05.396Z,1034.1
2018-05-05T08:27:05.410Z,1034.18
2018-05-05T08:28:05.415Z,1034.17
2018-05-05T08:29:05.458Z,1034.26
2018-05-05T08:30:05.437Z,1034.38
2018-05-05T08:31:05.446Z,1034.26
2018-05-05T08:32:05.457Z,1034.25
2018-05-05T08:33:05.467Z,1034.27
2018-05-05T08:34:05.476Z,1034.3
2018-05-05T08:35:05.485Z,1034.53
2018-05-05T08:36:05.495Z,1035.28
2018-05-05T08:37:05.505Z,1036.28
2018-05-05T08:38:05.513Z,1036.98
2018-05-05T08:39:05.524Z,1037.68
2018-05-05T08:40:05.532Z,1038.11
2018-05-05T08:41:05.541Z,1038.58
2018-05-05T08:42:05.549Z,1038.89
2018-05-05T08:43:05.555Z,1039.22
2018-05-05T08:44:05.566Z,1039.67
2018-05-05T08:45:05.570Z,1039.91
2018-05-05T08:46:05.577Z,1040.25
2018-05-05T08:47:05.596Z,1040.45
2018-05-05T08:48:05.627Z,1040.66
2018-05-05T08:49:05.591Z,1040.91
2018-05-05T08:50:05.594Z,1041.02
2018-05-05T08:51:05.599Z,1041.21
2018-05-05T08:52:05.601Z,1041.31
2018-05-05T08:53:05.604Z,1041.53
2018-05-05T08:54:05.681Z,1041.53
2018-05-05T08:55:05.613Z,1041.61
2018-05-05T08:56:05.611Z,1041.66
2018-05-05T08:57:05.615Z,1041.76
2018-05-05T08:58:05.611Z,1041.92
2018-05-05T08:59:05.612Z,1042.04
2018-05-05T09:00:05.611Z,1042.12
2018-05-05T09:01:05.612Z,1042.22
2018-05-05T09:02:05.679Z,1042.17
2018-05-05T09:03:05.622Z,1042.24
2018-05-05T09:04:05.609Z,1042.3
2018-05-05T09:05:05.610Z,1042.34
2018-05-05T09:06:05.608Z,1042.35
2018-05-05T09:07:05.608Z,1042.38
2018-05-05T09:08:05.606Z,1042.36
2018-05-05T09:09:05.605Z,1042.37
2018-05-05T09:10:05.604Z,1042.41
2018-05-05T09:11:05.601Z,1042.42
2018-05-05T09:12:05.605Z,1042.45
2018-05-05T09:13:05.598Z,1042.45
2018-05-05T09:14:05.598Z,1042.39
2018-05-05T09:15:05.594Z,1042.46
2018-05-05T09:16:05.594Z,1042.46
2018-05-05T09:17:05.590Z,1042.45
2018-05-05T09:18:05.588Z,1042.42
2018-05-05T09:19:05.589Z,1042.49
2018-05-05T09:20:05.584Z,1042.52
2018-05-05T09:21:05.585Z,1042.57
2018-05-05T09:22:05.578Z,1042.52
2018-05-05T09:23:05.576Z,1042.63
2018-05-05T09:24:05.574Z,1042.69
2018-05-05T09:25:05.577Z,1042.57
2018-05-05T09:26:05.568Z,1042.62
2018-05-05T09:27:05.565Z,1042.58
2018-05-05T09:28:05.571Z,1042.62
2018-05-05T09:29:05.561Z,1042.6
2018-05-05T09:30:05.558Z,1042.56
2018-05-05T09:31:05.557Z,1042.59
2018-05-05T09:32:05.553Z,1042.58
2018-05-05T09:33:05.555Z,1042.58
2018-05-05T09:34:05.549Z,1042.57
2018-05-05T09:35:05.547Z,1042.59
2018-05-05T09:36:05.542Z,1042.54
2018-05-05T09:37:05.538Z,1042.54
2018-05-05T09:38:05.536Z,1042.49
2018-05-05T09:39:05.533Z,1042.59
2018-05-05T09:40:05.531Z,1042.54
2018-05-05T09:41:05.526Z,1042.51
2018-05-05T09:42:05.537Z,1042.53
2018-05-05T09:43:05.557Z,1042.61
2018-05-05T09:44:05.529Z,1042.5
2018-05-05T09:45:05.516Z,1042.46
2018-05-05T09:46:05.514Z,1042.45
2018-05-05T09:47:05.510Z,1042.4
2018-05-05T09:48:05.511Z,1042.45
2018-05-05T09:49:05.509Z,1042.44
2018-05-05T09:50:05.513Z,1042.4
2018-05-05T09:51:05.499Z,1042.4
2018-05-05T09:52:05.495Z,1042.37
2018-05-05T09:53:05.494Z,1042.29
2018-05-05T09:54:05.489Z,1042.26
2018-05-05T09:55:05.486Z,1042.38
2018-05-05T09:57:05.480Z,1042.3
2018-05-05T09:58:05.477Z,1042.28
2018-05-05T09:59:05.473Z,1042.2
2018-05-05T10:00:05.472Z,1042.16
2018-05-05T10:01:05.470Z,1042.16
2018-05-05T10:02:05.465Z,1042.1
2018-05-05T10:03:05.461Z,1042.15
2018-05-05T10:04:05.469Z,1042.05
2018-05-05T10:05:05.469Z,1042.01
2018-05-05T10:06:05.452Z,1041.93
2018-05-05T10:07:05.449Z,1041.87
2018-05-05T10:08:05.447Z,1041.74
2018-05-05T10:09:05.444Z,1041.73
2018-05-05T10:10:05.440Z,1041.71
2018-05-05T10:11:05.444Z,1041.71
2018-05-05T10:12:05.436Z,1041.57
2018-05-05T10:13:05.433Z,1041.53
2018-05-05T10:14:05.430Z,1041.55
2018-05-05T10:15:05.427Z,1041.59
2018-05-05T10:16:05.428Z,1041.6
2018-05-05T10:17:05.421Z,1041.46
2018-05-05T10:18:05.418Z,1041.43
2018-05-05T10:19:05.415Z,1041.39
2018-05-05T10:20:05.414Z,1041.29
2018-05-05T10:21:05.409Z,1041.22
2018-05-05T10:22:05.408Z,1041.29
2018-05-05T10:23:05.406Z,1041.22
2018-05-05T10:24:05.401Z,1041.13
2018-05-05T10:25:05.400Z,1041.08
2018-05-05T10:26:05.397Z,1041.01
2018-05-05T10:27:05.397Z,1040.92
2018-05-05T10:28:05.392Z,1040.87
2018-05-05T10:29:05.389Z,1040.83
2018-05-05T10:30:05.388Z,1040.82
2018-05-05T10:31:05.387Z,1040.77
2018-05-05T10:32:05.385Z,1040.81
2018-05-05T10:33:05.383Z,1040.71
2018-05-05T10:34:05.378Z,1040.71
2018-05-05T10:35:05.376Z,1040.65
2018-05-05T10:36:05.374Z,1040.58
2018-05-05T10:37:05.372Z,1040.53
2018-05-05T10:38:05.370Z,1040.49
2018-05-05T10:39:05.429Z,1040.48
2018-05-05T10:40:05.367Z,1040.49
2018-05-05T10:41:05.364Z,1040.54
2018-05-05T10:42:05.363Z,1040.52
2018-05-05T10:43:05.360Z,1040.45
2018-05-05T10:44:05.359Z,1040.5
2018-05-05T10:45:05.364Z,1040.36
2018-05-05T10:46:05.357Z,1040.37
2018-05-05T10:47:05.359Z,1040.4
2018-05-05T10:48:05.351Z,1040.31
2018-05-05T10:49:05.351Z,1040.32
2018-05-05T10:50:05.374Z,1040.41
2018-05-05T10:51:05.351Z,1040.43
2018-05-05T10:52:05.346Z,1040.31
2018-05-05T10:53:05.344Z,1040.27
2018-05-05T10:54:05.342Z,1040.32
2018-05-05T10:55:05.342Z,1040.33
2018-05-05T10:56:05.339Z,1040.35
2018-05-05T10:57:05.337Z,1040.31
2018-05-05T10:58:05.335Z,1040.36
2018-05-05T10:59:05.339Z,1040.45
2018-05-05T11:00:05.333Z,1040.39
2018-05-05T11:01:05.331Z,1040.39
2018-05-05T11:02:05.330Z,1040.47
2018-05-05T11:03:05.329Z,1040.45
2018-05-05T11:04:05.342Z,1040.51
2018-05-05T11:05:05.343Z,1040.61
2018-05-05T11:06:05.324Z,1040.59
2018-05-05T11:07:05.336Z,1040.65
2018-05-05T11:08:05.321Z,1040.59
2018-05-05T11:09:05.318Z,1040.66
2018-05-05T11:10:05.533Z,1040.63
2018-05-05T11:11:05.316Z,1040.84
2018-05-05T11:12:05.315Z,1040.91
2018-05-05T11:13:05.314Z,1040.98
2018-05-05T11:14:05.311Z,1040.94
2018-05-05T11:15:05.309Z,1040.98
2018-05-05T11:16:05.334Z,1040.97
2018-05-05T11:17:05.309Z,1040.98
2018-05-05T11:18:05.303Z,1041.06
2018-05-05T11:19:05.305Z,1040.97
2018-05-05T11:20:05.304Z,1040.98
2018-05-05T11:21:05.302Z,1040.98
2018-05-05T11:22:05.297Z,1040.97
2018-05-05T11:23:05.294Z,1040.94
2018-05-05T11:24:05.291Z,1040.97
2018-05-05T11:25:05.290Z,1040.99
2018-05-05T11:26:05.295Z,1041.07
2018-05-05T11:27:05.293Z,1041.08
2018-05-05T11:28:05.330Z,1041.04
2018-05-05T11:29:05.285Z,1041.06
2018-05-05T11:30:05.280Z,1041.08
2018-05-05T11:31:05.277Z,1041.08
2018-05-05T11:32:05.338Z,1041.1
2018-05-05T11:33:05.280Z,1041.06
2018-05-05T11:34:05.270Z,1041.06
2018-05-05T11:35:05.274Z,1041.06
2018-05-05T11:36:05.271Z,1041.08
2018-05-05T11:37:05.293Z,1041.06
2018-05-05T11:38:05.260Z,1040.99
2018-05-05T11:39:05.263Z,1040.99
2018-05-05T11:40:05.256Z,1041.05
2018-05-05T11:41:05.253Z,1041.04
2018-05-05T11:42:05.251Z,1041.03
2018-05-05T11:43:05.249Z,1041.08
2018-05-05T11:44:05.247Z,1041.2
2018-05-05T11:45:05.243Z,1041.09
2018-05-05T11:46:05.241Z,1041.04
2018-05-05T11:47:05.241Z,1041.36
2018-05-05T11:48:05.237Z,1041.13
2018-05-05T11:49:05.235Z,1041.11
2018-05-05T11:50:05.233Z,1041.16
2018-05-05T11:51:05.231Z,1041.08
2018-05-05T11:52:05.227Z,1041.04
2018-05-05T11:53:05.225Z,1041
2018-05-05T11:54:05.223Z,1040.97
2018-05-05T11:55:05.232Z,1040.89
2018-05-05T11:56:05.276Z,1040.88
2018-05-05T11:57:05.225Z,1040.91
2018-05-05T11:58:05.212Z,1040.79
2018-05-05T11:59:05.218Z,1040.77
2018-05-05T12:00:05.207Z,1040.72
2018-05-05T12:01:05.207Z,1040.7
2018-05-05T12:02:05.204Z,1040.7
2018-05-05T12:03:05.207Z,1040.75
2018-05-05T12:04:05.208Z,1040.71
2018-05-05T12:05:05.197Z,1040.65
2018-05-05T12:06:05.194Z,1040.6
2018-05-05T12:07:05.192Z,1040.63
2018-05-05T12:08:05.188Z,1040.57